Airfield :
LOGIN :

Register | Disclaimer

   EN    FR    IT 

 










Legend :    VFR   Marginal VFR   IFR   Intensive IFR   Very Intensive IFR
Visi :
Ceiling :
>= 8 km
>= 3000ft
5 to 8 km
1000 to 3000 ft
1500m to 5 km
500 to 1000 ft
800 to 1500m
200 to 500 ft
< 800m
< 200 ft
Symbols :   Thunderstorms  Fog  Heavy snow  Heavy precipitations  Wind > 20 kt
SIGMETs :     Misc.  Thunderstorms  Icing  Turbulence  Mountain Waves  Volcanic Ashes






- Airport Elevation : 326 ft
- IATA code : LCG


LECO - A Coruna

CURRENT METAR :
  • 231400Z 02005KT 340V060 CAVOK 13/04 Q1024 NOSIG

EXPIRED METARs :
  • 231330Z VRB02KT CAVOK 14/02 Q1024 NOSIG
  • 231300Z VRB02KT CAVOK 14/02 Q1024 NOSIG
  • 231230Z 17003KT 120V210 CAVOK 13/02 Q1025 NOSIG
  • 231200Z 16004KT CAVOK 11/03 Q1025 NOSIG
  • 231130Z 16005KT 120V190 CAVOK 08/02 Q1025 NOSIG

TAF TAF LECO
Valid from the 23 at 09:00 until the 24 at 09:00 UTC


230800Z 2309/2409 18005KT CAVOK TX13/2314Z TNM00/2407Z
PROB30
TEMPO 2309/2310 1500 BCFG SCT001
PROB30
TEMPO 2314/2318 34010KT
PROB40
TEMPO 2320/2409 3000 BCFG
PROB30
TEMPO 2321/2409 0350 FG VV001
PROB30
TEMPO 2404/2409 0350 FZFG VV001



MET'MAP, your aeronautical weather chart ! - Copyright ORBIFLY December 2007 - Disclaimer

ORBIFLY MET'MAP TEAM :

Programming & Development : Alexandra Zaïnal
Concept & original design : Baudouin d'Aumeries
Assistance for programming : Marc-Olivier Méhu
Technical & hardware support : Manuel Goepfert

Contact : metmap@orbifly.com




SOURCES & CREDITS :

   NOAA